createdAt,value
2022-12-01T00:00:28.179Z,133.64
2022-12-01T00:01:28.187Z,134.72
2022-12-01T00:02:28.321Z,133.64
2022-12-01T00:03:28.191Z,132.89
2022-12-01T00:04:28.139Z,132.36
2022-12-01T00:05:28.146Z,131.74
2022-12-01T00:06:28.113Z,131.53
2022-12-01T00:07:28.144Z,131.21
2022-12-01T00:08:28.107Z,131.42
2022-12-01T00:09:28.085Z,130.29
2022-12-01T00:10:28.051Z,131.84
2022-12-01T00:11:28.062Z,134.40
2022-12-01T00:12:28.034Z,133.43
2022-12-01T00:13:28.031Z,132.36
2022-12-01T00:14:28.005Z,134.94
2022-12-01T00:15:27.997Z,137.28
2022-12-01T00:16:28.022Z,137.17
2022-12-01T00:17:27.978Z,137.17
2022-12-01T00:18:27.954Z,133.53
2022-12-01T00:19:27.944Z,131.63
2022-12-01T00:20:27.935Z,131.63
2022-12-01T00:21:27.919Z,130.29
2022-12-01T00:22:27.937Z,129.08
2022-12-01T00:23:27.898Z,127.98
2022-12-01T00:24:27.883Z,128.98
2022-12-01T00:25:27.874Z,128.28
2022-12-01T00:26:27.855Z,126.14
2022-12-01T00:27:27.848Z,124.91
2022-12-01T00:28:27.827Z,123.42
2022-12-01T00:29:27.824Z,121.62
2022-12-01T00:30:27.821Z,121.00
2022-12-01T00:31:27.848Z,121.08
2022-12-01T00:32:27.784Z,119.35
2022-12-01T00:33:27.766Z,119.00
2022-12-01T00:34:27.756Z,118.41
2022-12-01T00:35:27.765Z,117.16
2022-12-01T00:36:27.747Z,114.18
2022-12-01T00:37:27.717Z,113.87
2022-12-01T00:38:27.706Z,113.56
2022-12-01T00:39:27.699Z,113.33
2022-12-01T00:40:27.687Z,112.56
2022-12-01T00:41:27.690Z,113.56
2022-12-01T00:42:27.661Z,112.48
2022-12-01T00:43:27.642Z,111.20
2022-12-01T00:44:27.648Z,110.17
2022-12-01T00:45:27.618Z,108.17
2022-12-01T00:46:27.645Z,107.47
2022-12-01T00:47:27.590Z,105.02
2022-12-01T00:48:27.580Z,104.23
2022-12-01T00:49:27.581Z,103.52
2022-12-01T00:50:27.549Z,104.04
2022-12-01T00:51:27.576Z,104.10
2022-12-01T00:52:27.525Z,104.56
2022-12-01T00:53:27.516Z,104.49
2022-12-01T00:54:27.495Z,105.09
2022-12-01T00:55:27.505Z,105.22
2022-12-01T00:56:27.484Z,106.71
2022-12-01T00:57:27.470Z,107.95
2022-12-01T00:58:27.448Z,109.81
2022-12-01T00:59:27.451Z,110.83
2022-12-01T01:00:27.426Z,112.25
2022-12-01T01:01:27.455Z,112.79
2022-12-01T01:02:27.497Z,112.86
2022-12-01T01:03:27.419Z,114.34
2022-12-01T01:04:27.388Z,114.34
2022-12-01T01:05:27.375Z,115.69
2022-12-01T01:06:27.338Z,116.26
2022-12-01T01:07:27.421Z,119.86
2022-12-01T01:08:27.315Z,119.35
2022-12-01T01:09:27.326Z,121.88
2022-12-01T01:10:27.295Z,123.33
2022-12-01T01:11:27.292Z,122.69
2022-12-01T01:12:27.273Z,121.35
2022-12-01T01:13:27.252Z,120.30
2022-12-01T01:14:27.243Z,119.52
2022-12-01T01:15:27.240Z,117.49
2022-12-01T01:16:27.265Z,116.58
2022-12-01T01:17:27.206Z,116.50
2022-12-01T01:18:27.213Z,116.01
2022-12-01T01:19:27.188Z,115.13
2022-12-01T01:20:27.158Z,117.08
2022-12-01T01:21:27.165Z,117.57
2022-12-01T01:22:27.137Z,117.99
2022-12-01T01:23:27.124Z,121.00
2022-12-01T01:24:27.153Z,124.53
2022-12-01T01:25:27.109Z,126.81
2022-12-01T01:26:27.089Z,128.88
2022-12-01T01:27:27.084Z,130.29
2022-12-01T01:28:27.057Z,132.36
2022-12-01T01:29:27.062Z,133.43
2022-12-01T01:30:27.108Z,133.53
2022-12-01T01:31:27.026Z,136.61
2022-12-01T01:32:27.013Z,136.94
2022-12-01T01:33:27.013Z,143.07
2022-12-01T01:34:26.997Z,149.64
2022-12-01T01:35:26.972Z,154.65
2022-12-01T01:36:26.960Z,160.32
2022-12-01T01:37:26.946Z,163.79
2022-12-01T01:38:26.933Z,166.42
2022-12-01T01:39:26.932Z,169.99
2022-12-01T01:40:26.932Z,171.21
2022-12-01T01:41:26.903Z,173.36
2022-12-01T01:42:26.888Z,174.08
2022-12-01T01:43:26.877Z,174.82
2022-12-01T01:44:26.862Z,173.54
2022-12-01T01:45:26.857Z,173.18
2022-12-01T01:46:26.922Z,173.72
2022-12-01T01:47:26.828Z,172.28
2022-12-01T01:48:26.816Z,173.54
2022-12-01T01:49:26.803Z,175.18
2022-12-01T01:50:26.785Z,178.19
2022-12-01T01:51:26.780Z,178.96
2022-12-01T01:52:26.758Z,178.38
2022-12-01T01:53:26.740Z,181.30
2022-12-01T01:54:26.763Z,181.30
2022-12-01T01:55:26.718Z,178.76
2022-12-01T01:56:26.718Z,178.19
2022-12-01T01:57:26.700Z,179.92
2022-12-01T01:58:26.680Z,181.30
2022-12-01T01:59:26.673Z,178.38
2022-12-01T02:00:26.667Z,178.57
2022-12-01T02:01:26.698Z,176.49
2022-12-01T02:02:26.678Z,174.82
2022-12-01T02:03:26.627Z,173.54
2022-12-01T02:04:26.605Z,170.69
2022-12-01T02:05:26.590Z,168.95
2022-12-01T02:06:26.574Z,168.27
2022-12-01T02:07:26.609Z,167.93
2022-12-01T02:08:26.563Z,167.76
2022-12-01T02:09:26.549Z,166.75
2022-12-01T02:10:26.521Z,168.78
2022-12-01T02:11:26.510Z,168.95
2022-12-01T02:12:26.498Z,166.92
2022-12-01T02:13:26.507Z,166.42
2022-12-01T02:14:26.472Z,165.59
2022-12-01T02:15:26.483Z,166.25
2022-12-01T02:16:26.502Z,166.75
2022-12-01T02:17:26.451Z,164.44
2022-12-01T02:18:26.423Z,162.20
2022-12-01T02:19:26.439Z,160.63
2022-12-01T02:20:26.397Z,157.88
2022-12-01T02:21:26.378Z,157.58
2022-12-01T02:22:26.368Z,156.84
2022-12-01T02:23:26.366Z,154.94
2022-12-01T02:24:26.349Z,156.10
2022-12-01T02:25:26.340Z,154.79
2022-12-01T02:26:26.322Z,155.08
2022-12-01T02:27:26.312Z,155.37
2022-12-01T02:28:26.294Z,155.52
2022-12-01T02:29:26.282Z,154.79
2022-12-01T02:30:26.368Z,155.23
2022-12-01T02:31:26.276Z,156.10
2022-12-01T02:32:26.241Z,155.96
2022-12-01T02:33:26.223Z,154.22
2022-12-01T02:34:26.211Z,153.65
2022-12-01T02:35:26.226Z,154.08
2022-12-01T02:36:26.191Z,152.94
2022-12-01T02:37:26.192Z,152.52
2022-12-01T02:38:26.160Z,151.83
2022-12-01T02:39:26.150Z,151.69
2022-12-01T02:40:26.134Z,152.52
2022-12-01T02:41:26.143Z,152.66
2022-12-01T02:42:26.119Z,148.84
2022-12-01T02:43:26.102Z,148.44
2022-12-01T02:44:26.081Z,148.04
2022-12-01T02:45:26.067Z,144.82
2022-12-01T02:46:26.112Z,142.34
2022-12-01T02:47:26.054Z,140.06
2022-12-01T02:48:26.034Z,139.24
2022-12-01T02:49:26.019Z,139.24
2022-12-01T02:50:26.000Z,139.01
2022-12-01T02:51:25.992Z,137.40
2022-12-01T02:52:25.995Z,135.05
2022-12-01T02:53:25.972Z,133.75
2022-12-01T02:54:25.963Z,132.05
2022-12-01T02:55:25.942Z,131.11
2022-12-01T02:56:25.933Z,127.79
2022-12-01T02:57:25.918Z,124.91
2022-12-01T02:58:25.909Z,122.33
2022-12-01T02:59:25.908Z,121.00
2022-12-01T03:00:25.890Z,119.86
2022-12-01T03:01:25.923Z,119.26
2022-12-01T03:02:25.945Z,119.26
2022-12-01T03:03:25.851Z,120.47
2022-12-01T03:04:25.832Z,122.88
2022-12-01T03:05:25.835Z,126.62
2022-12-01T03:06:25.804Z,130.09
2022-12-01T03:07:25.850Z,133.00
2022-12-01T03:08:25.777Z,134.40
2022-12-01T03:09:25.779Z,136.16
2022-12-01T03:10:25.761Z,138.20
2022-12-01T03:11:25.740Z,134.83
2022-12-01T03:12:25.746Z,131.42
2022-12-01T03:13:25.705Z,129.08
2022-12-01T03:14:25.692Z,129.88
2022-12-01T03:15:25.678Z,131.11
2022-12-01T03:16:25.755Z,129.98
2022-12-01T03:17:25.664Z,129.38
2022-12-01T03:18:25.655Z,128.48
2022-12-01T03:19:25.635Z,125.85
2022-12-01T03:20:25.631Z,125.28
2022-12-01T03:21:25.611Z,124.44
2022-12-01T03:22:25.602Z,124.44
2022-12-01T03:23:25.584Z,123.24
2022-12-01T03:24:25.576Z,122.15
2022-12-01T03:25:25.559Z,121.71
2022-12-01T03:26:25.550Z,121.35
2022-12-01T03:27:25.524Z,122.24
2022-12-01T03:28:25.549Z,122.42
2022-12-01T03:29:25.496Z,123.70
2022-12-01T03:30:25.508Z,123.51
2022-12-01T03:31:25.562Z,121.88
2022-12-01T03:32:25.488Z,122.06
2022-12-01T03:33:25.456Z,122.33
2022-12-01T03:34:25.438Z,123.97
2022-12-01T03:35:25.418Z,126.04
2022-12-01T03:36:25.416Z,127.20
2022-12-01T03:37:25.398Z,128.28
2022-12-01T03:38:25.388Z,128.98
2022-12-01T03:39:25.366Z,130.09
2022-12-01T03:40:25.357Z,130.09
2022-12-01T03:41:25.350Z,128.18
2022-12-01T03:42:25.343Z,125.00
2022-12-01T03:43:25.319Z,125.38
2022-12-01T03:44:25.307Z,126.43
2022-12-01T03:45:25.305Z,127.39
2022-12-01T03:46:25.324Z,127.98
2022-12-01T03:47:25.287Z,129.78
2022-12-01T03:48:25.256Z,131.01
2022-12-01T03:49:25.258Z,131.63
2022-12-01T03:50:25.228Z,132.36
2022-12-01T03:51:25.208Z,132.79
2022-12-01T03:52:25.207Z,132.68
2022-12-01T03:53:25.202Z,134.07
2022-12-01T03:54:25.187Z,133.53
2022-12-01T03:55:25.200Z,132.36
2022-12-01T03:56:25.156Z,133.32
2022-12-01T03:57:25.136Z,132.05
2022-12-01T03:58:25.127Z,132.57
2022-12-01T03:59:25.131Z,132.47
2022-12-01T04:00:25.104Z,131.32
2022-12-01T04:01:25.144Z,131.94
2022-12-01T04:02:25.102Z,130.39
2022-12-01T04:03:25.053Z,127.59
2022-12-01T04:04:25.049Z,127.88
2022-12-01T04:05:25.591Z,124.72
2022-12-01T04:06:25.024Z,124.72
2022-12-01T04:07:25.063Z,123.88
2022-12-01T04:08:25.007Z,122.96
2022-12-01T04:09:24.984Z,121.44
2022-12-01T04:10:24.972Z,121.53
2022-12-01T04:11:29.469Z,121.35
2022-12-01T04:12:24.960Z,120.47
2022-12-01T04:13:24.945Z,120.21
2022-12-01T04:14:24.949Z,118.24
2022-12-01T04:15:24.967Z,115.13
2022-12-01T04:16:24.974Z,116.34
2022-12-01T04:17:24.870Z,116.18
2022-12-01T04:18:24.935Z,115.29
2022-12-01T04:19:24.847Z,116.75
2022-12-01T04:20:24.853Z,118.41
2022-12-01T04:21:24.829Z,120.73
2022-12-01T04:22:24.835Z,120.21
2022-12-01T04:23:24.815Z,120.82
2022-12-01T04:24:24.787Z,120.56
2022-12-01T04:25:24.803Z,121.26
2022-12-01T04:26:24.785Z,122.51
2022-12-01T04:27:24.756Z,121.79
2022-12-01T04:28:24.818Z,123.06
2022-12-01T04:29:24.723Z,123.51
2022-12-01T04:30:24.720Z,123.15
2022-12-01T04:31:24.747Z,121.88
2022-12-01T04:32:24.752Z,119.69
2022-12-01T04:33:24.767Z,117.00
2022-12-01T04:34:24.662Z,118.33
2022-12-01T04:35:24.655Z,118.41
2022-12-01T04:36:24.634Z,117.08
2022-12-01T04:37:24.621Z,116.91
2022-12-01T04:38:30.066Z,114.81
2022-12-01T04:39:24.597Z,114.73
2022-12-01T04:40:24.594Z,113.33
2022-12-01T04:41:24.568Z,112.48
2022-12-01T04:42:24.555Z,111.50
2022-12-01T04:43:24.545Z,112.71
2022-12-01T04:44:26.832Z,112.48
2022-12-01T04:45:24.516Z,111.80
2022-12-01T04:46:24.620Z,110.83
2022-12-01T04:47:24.489Z,108.73
2022-12-01T04:48:24.492Z,109.45
2022-12-01T04:49:24.462Z,110.32
2022-12-01T04:50:24.453Z,111.88
2022-12-01T04:51:24.436Z,113.48
2022-12-01T04:52:24.428Z,114.50
2022-12-01T04:53:24.422Z,116.18
2022-12-01T04:54:24.402Z,117.49
2022-12-01T04:55:24.397Z,119.00
2022-12-01T04:56:24.374Z,119.35
2022-12-01T04:57:24.359Z,119.26
2022-12-01T04:58:24.355Z,118.58
2022-12-01T04:59:24.335Z,118.16
2022-12-01T05:00:24.407Z,119.00
2022-12-01T05:01:24.475Z,118.75
2022-12-01T05:02:24.403Z,117.82
2022-12-01T05:03:24.283Z,116.75
2022-12-01T05:04:24.276Z,117.08
2022-12-01T05:05:24.256Z,117.49
2022-12-01T05:06:24.252Z,117.66
2022-12-01T05:07:24.311Z,117.74
2022-12-01T05:08:24.222Z,116.01
2022-12-01T05:09:24.206Z,115.29
2022-12-01T05:10:24.206Z,113.40
2022-12-01T05:11:24.186Z,112.48
2022-12-01T05:12:24.170Z,109.95
2022-12-01T05:13:24.172Z,107.33
2022-12-01T05:14:24.160Z,104.69
2022-12-01T05:15:24.171Z,102.62
2022-12-01T05:16:24.154Z,103.26
2022-12-01T05:17:24.114Z,105.42
2022-12-01T05:18:24.147Z,106.98
2022-12-01T05:19:24.089Z,108.94
2022-12-01T05:20:24.068Z,108.59
2022-12-01T05:21:24.064Z,109.52
2022-12-01T05:22:42.876Z,109.74
2022-12-01T05:23:24.145Z,109.30
2022-12-01T05:24:24.044Z,109.16
2022-12-01T05:25:24.014Z,108.24
2022-12-01T05:26:24.013Z,108.02
2022-12-01T05:27:23.974Z,106.57
2022-12-01T05:28:23.979Z,105.76
2022-12-01T05:29:23.992Z,105.96
2022-12-01T05:30:28.379Z,105.82
2022-12-01T05:31:24.047Z,106.23
2022-12-01T05:32:23.912Z,105.69
2022-12-01T05:33:23.909Z,105.56
2022-12-01T05:34:23.891Z,104.43
2022-12-01T05:35:23.885Z,104.89
2022-12-01T05:36:23.862Z,105.42
2022-12-01T05:37:23.845Z,105.69
2022-12-01T05:38:23.844Z,105.15
2022-12-01T05:39:23.824Z,104.36
2022-12-01T05:40:23.830Z,105.42
2022-12-01T05:41:23.810Z,106.03
2022-12-01T05:42:23.804Z,106.64
2022-12-01T05:43:28.777Z,106.03
2022-12-01T05:44:23.804Z,105.49
2022-12-01T05:45:23.836Z,104.76
2022-12-01T05:46:23.956Z,105.35
2022-12-01T05:47:23.774Z,104.49
2022-12-01T05:48:23.706Z,104.04
2022-12-01T05:49:23.710Z,103.26
2022-12-01T05:50:23.679Z,101.93
2022-12-01T05:51:23.669Z,100.76
2022-12-01T05:52:23.653Z,102.24
2022-12-01T05:53:23.646Z,103.97
2022-12-01T05:54:23.649Z,102.88
2022-12-01T05:55:23.702Z,102.43
2022-12-01T05:56:23.599Z,103.45
2022-12-01T05:57:23.602Z,104.23
2022-12-01T05:58:23.575Z,103.39
2022-12-01T05:59:23.560Z,103.13
2022-12-01T06:00:23.564Z,102.62
2022-12-01T06:01:23.534Z,101.93
2022-12-01T06:02:23.749Z,99.91
2022-12-01T06:03:23.512Z,98.72
2022-12-01T06:04:23.575Z,99.08
2022-12-01T06:05:23.485Z,100.33
2022-12-01T06:06:23.505Z,99.43
2022-12-01T06:07:23.600Z,99.02
2022-12-01T06:08:23.481Z,100.09
2022-12-01T06:09:23.438Z,100.33
2022-12-01T06:10:23.421Z,100.76
2022-12-01T06:11:23.472Z,101.12
2022-12-01T06:12:23.436Z,102.62
2022-12-01T06:13:23.395Z,101.87
2022-12-01T06:14:23.385Z,100.57
2022-12-01T06:15:23.385Z,100.27
2022-12-01T06:16:23.381Z,99.79
2022-12-01T06:17:23.334Z,99.67
2022-12-01T06:18:23.370Z,100.45
2022-12-01T06:19:23.322Z,100.33
2022-12-01T06:20:23.337Z,101.43
2022-12-01T06:21:23.437Z,101.68
2022-12-01T06:22:23.283Z,101.56
2022-12-01T06:23:27.602Z,100.15
2022-12-01T06:24:23.290Z,99.73
2022-12-01T06:25:23.285Z,99.43
2022-12-01T06:26:23.231Z,100.33
2022-12-01T06:27:23.257Z,100.88
2022-12-01T06:28:23.214Z,101.56
2022-12-01T06:29:23.209Z,102.18
2022-12-01T06:30:23.187Z,101.99
2022-12-01T06:31:23.197Z,101.12
2022-12-01T06:32:23.175Z,101.06
2022-12-01T06:33:23.151Z,100.51
2022-12-01T06:34:23.177Z,101.87
2022-12-01T06:35:23.127Z,101.68
2022-12-01T06:36:23.127Z,103.58
2022-12-01T06:37:23.080Z,104.23
2022-12-01T06:38:23.083Z,104.30
2022-12-01T06:39:23.135Z,105.82
2022-12-01T06:40:52.157Z,137.17
2022-12-01T06:41:53.168Z,125.57
2022-12-01T06:42:53.128Z,117.74
2022-12-01T06:43:53.118Z,115.13
2022-12-01T06:44:53.118Z,111.65
2022-12-01T06:45:57.770Z,110.98
2022-12-01T06:46:53.097Z,109.81
2022-12-01T06:47:53.090Z,108.87
2022-12-01T06:48:54.251Z,111.43
2022-12-01T06:49:53.224Z,112.10
2022-12-01T06:50:53.045Z,110.03
2022-12-01T06:51:53.052Z,108.59
2022-12-01T06:52:53.008Z,109.09
2022-12-01T06:53:52.995Z,107.33
2022-12-01T06:54:52.980Z,105.09
2022-12-01T06:55:52.963Z,101.81
2022-12-01T06:56:52.953Z,101.25
2022-12-01T06:57:52.947Z,99.73
2022-12-01T06:58:52.936Z,98.20
2022-12-01T06:59:53.159Z,97.05
2022-12-01T07:00:53.009Z,96.60
2022-12-01T07:01:52.931Z,96.21
2022-12-01T07:02:52.926Z,94.35
2022-12-01T07:03:52.912Z,95.29
2022-12-01T07:04:52.849Z,95.29
2022-12-01T07:05:52.846Z,95.51
2022-12-01T07:06:52.832Z,94.74
2022-12-01T07:07:59.172Z,95.29
2022-12-01T07:08:52.828Z,94.19
2022-12-01T07:09:52.792Z,95.93
2022-12-01T07:10:52.789Z,96.49
2022-12-01T07:11:52.773Z,97.39
2022-12-01T07:12:52.804Z,97.74
2022-12-01T07:13:52.747Z,96.32
2022-12-01T07:14:52.725Z,96.21
2022-12-01T07:15:52.718Z,95.05
2022-12-01T07:16:52.828Z,94.62
2022-12-01T07:17:52.686Z,94.19
2022-12-01T07:18:52.730Z,95.51
2022-12-01T07:19:52.683Z,94.21
2022-12-01T07:20:52.674Z,93.57
2022-12-01T07:21:52.629Z,92.94
2022-12-01T07:22:52.637Z,92.22
2022-12-01T07:23:52.611Z,92.43
2022-12-01T07:24:52.609Z,92.53
2022-12-01T07:25:52.600Z,92.84
2022-12-01T07:26:52.576Z,93.78
2022-12-01T07:27:52.553Z,94.21
2022-12-01T07:28:52.539Z,95.40
2022-12-01T07:29:52.525Z,94.89
2022-12-01T07:30:52.555Z,95.22
2022-12-01T07:31:52.504Z,95.05
2022-12-01T07:32:52.485Z,94.57
2022-12-01T07:33:52.470Z,95.11
2022-12-01T07:42:33.990Z,125.28
2022-12-01T07:43:34.981Z,110.76
2022-12-01T07:44:34.992Z,104.30
2022-12-01T07:45:34.979Z,99.55
2022-12-01T07:46:35.057Z,98.66
2022-12-01T07:47:34.923Z,98.20
2022-12-01T07:48:34.918Z,98.37
2022-12-01T07:49:34.913Z,100.39
2022-12-01T07:50:34.916Z,102.24
2022-12-01T07:51:35.007Z,103.00
2022-12-01T07:56:08.400Z,127.49
2022-12-01T07:57:04.214Z,115.45
2022-12-01T07:58:04.248Z,110.10
2022-12-01T07:59:04.194Z,106.57
2022-12-01T08:00:04.121Z,105.96
2022-12-01T08:01:04.232Z,105.96
2022-12-01T08:02:04.248Z,104.23
2022-12-01T08:03:04.157Z,103.91
2022-12-01T08:04:04.086Z,104.04
2022-12-01T08:05:04.068Z,105.02
2022-12-01T08:06:04.057Z,105.02
2022-12-01T08:07:04.055Z,105.96
2022-12-01T08:08:04.090Z,106.16
2022-12-01T08:09:04.020Z,106.36
2022-12-01T08:10:04.033Z,105.96
2022-12-01T08:11:04.015Z,104.76
2022-12-01T08:12:03.987Z,103.97
2022-12-01T08:13:03.971Z,102.94
2022-12-01T08:14:03.962Z,100.27
2022-12-01T08:15:03.938Z,99.67
2022-12-01T08:16:04.036Z,100.64
2022-12-01T08:17:03.936Z,100.33
2022-12-01T08:18:03.895Z,101.81
2022-12-01T08:19:03.896Z,100.33
2022-12-01T08:20:03.883Z,100.27
2022-12-01T08:21:03.862Z,99.67
2022-12-01T08:22:03.888Z,99.79
2022-12-01T08:23:03.835Z,98.43
2022-12-01T08:24:03.885Z,99.37
2022-12-01T08:25:11.566Z,99.73
2022-12-01T08:26:03.792Z,99.19
2022-12-01T08:27:03.966Z,99.85
2022-12-01T08:28:03.815Z,101.25
2022-12-01T08:29:03.892Z,102.50
2022-12-01T08:30:04.434Z,104.76
2022-12-01T08:31:04.530Z,106.09
2022-12-01T08:32:03.772Z,108.17
2022-12-01T08:33:03.760Z,108.02
2022-12-01T08:34:03.786Z,108.38
2022-12-01T08:35:03.718Z,107.61
2022-12-01T08:36:03.683Z,108.80
2022-12-01T08:37:03.691Z,109.23
2022-12-01T08:38:03.746Z,110.10
2022-12-01T08:39:03.728Z,109.95
2022-12-01T08:40:03.766Z,109.81
2022-12-01T08:41:03.638Z,110.10
2022-12-01T08:42:03.716Z,107.54
2022-12-01T08:43:03.688Z,104.10
2022-12-01T08:44:03.804Z,102.50
2022-12-01T08:45:03.639Z,103.13
2022-12-01T08:46:03.760Z,103.07
2022-12-01T08:47:03.641Z,103.39
2022-12-01T08:48:03.631Z,104.30
2022-12-01T08:49:03.525Z,105.22
2022-12-01T08:50:03.593Z,104.30
2022-12-01T08:51:03.517Z,105.35
2022-12-01T08:52:03.535Z,106.57
2022-12-01T08:53:03.569Z,108.02
2022-12-01T08:54:03.468Z,110.61
2022-12-01T08:55:03.446Z,110.91
2022-12-01T08:56:03.499Z,109.66
2022-12-01T08:57:03.442Z,109.30
2022-12-01T08:58:03.497Z,108.87
2022-12-01T08:59:03.423Z,109.02
2022-12-01T09:00:03.435Z,106.03
2022-12-01T09:01:03.398Z,103.07
2022-12-01T09:02:06.956Z,100.51
2022-12-01T09:03:03.519Z,97.97
2022-12-01T09:05:29.215Z,127.59
2022-12-01T09:06:30.211Z,113.10
2022-12-01T09:07:30.156Z,107.47
2022-12-01T09:08:30.076Z,103.00
2022-12-01T09:09:30.064Z,102.56
2022-12-01T09:10:30.173Z,102.56
2022-12-01T09:11:30.051Z,102.50
2022-12-01T09:12:30.038Z,102.24
2022-12-01T09:13:30.019Z,101.19
2022-12-01T09:14:30.037Z,99.97
2022-12-01T09:15:29.981Z,99.55
2022-12-01T09:16:30.108Z,98.26
2022-12-01T09:17:30.042Z,96.04
2022-12-01T09:18:29.951Z,95.44
2022-12-01T09:19:29.940Z,94.84
2022-12-01T09:20:29.944Z,95.16
2022-12-01T09:21:29.907Z,95.44
2022-12-01T09:22:29.908Z,94.30
2022-12-01T09:23:29.907Z,95.95
2022-12-01T09:24:29.881Z,95.62
2022-12-01T09:25:29.860Z,95.73
2022-12-01T09:26:29.873Z,95.62
2022-12-01T09:27:29.843Z,94.73
2022-12-01T09:28:29.842Z,95.05
2022-12-01T09:29:29.824Z,96.66
2022-12-01T09:30:29.822Z,98.55
2022-12-01T09:31:29.850Z,99.61
2022-12-01T09:32:29.801Z,100.03
2022-12-01T09:33:29.761Z,99.97
2022-12-01T09:34:29.757Z,99.97
2022-12-01T09:35:29.736Z,99.61
2022-12-01T09:36:29.736Z,99.25
2022-12-01T09:37:29.716Z,98.90
2022-12-01T09:38:29.694Z,97.22
2022-12-01T09:39:29.793Z,97.28
2022-12-01T09:40:29.682Z,96.38
2022-12-01T09:41:29.682Z,96.38
2022-12-01T09:42:35.195Z,96.26
2022-12-01T09:43:29.643Z,96.21
2022-12-01T09:44:29.641Z,95.38
2022-12-01T09:45:29.628Z,95.16
2022-12-01T09:46:29.706Z,95.27
2022-12-01T09:47:29.624Z,94.84
2022-12-01T09:48:29.581Z,95.16
2022-12-01T09:49:29.568Z,95.60
2022-12-01T09:50:29.546Z,95.27
2022-12-01T09:51:29.631Z,95.54
2022-12-01T09:52:29.532Z,96.04
2022-12-01T09:53:29.553Z,96.21
2022-12-01T09:54:29.510Z,95.16
2022-12-01T09:55:29.486Z,94.73
2022-12-01T09:56:29.482Z,94.73
2022-12-01T09:57:29.465Z,95.95
2022-12-01T09:58:29.459Z,94.03
2022-12-01T09:59:29.446Z,94.73
2022-12-01T10:00:29.431Z,95.54
2022-12-01T10:01:29.455Z,96.49
2022-12-01T10:02:29.486Z,96.71
2022-12-01T10:03:29.392Z,96.49
2022-12-01T10:04:29.365Z,96.15
2022-12-01T10:05:29.456Z,96.54
2022-12-01T10:06:29.521Z,97.05
2022-12-01T10:07:29.405Z,98.72
2022-12-01T10:08:29.342Z,99.91
2022-12-01T10:09:29.317Z,100.51
2022-12-01T10:10:29.299Z,101.06
2022-12-01T10:11:29.301Z,98.72
2022-12-01T10:12:29.267Z,99.37
2022-12-01T10:13:29.268Z,99.25
2022-12-01T10:14:29.242Z,98.96
2022-12-01T10:15:29.235Z,99.55
2022-12-01T10:16:29.294Z,97.97
2022-12-01T10:17:29.209Z,98.72
2022-12-01T10:18:29.222Z,98.02
2022-12-01T10:19:29.181Z,99.08
2022-12-01T10:20:29.170Z,99.73
2022-12-01T10:21:29.172Z,99.97
2022-12-01T10:22:29.183Z,100.15
2022-12-01T10:23:29.154Z,102.75
2022-12-01T10:24:29.133Z,104.36
2022-12-01T10:25:29.113Z,104.10
2022-12-01T10:26:29.121Z,104.69
2022-12-01T10:27:29.092Z,102.94
2022-12-01T10:28:29.074Z,102.81
2022-12-01T10:29:29.076Z,102.06
2022-12-01T10:30:29.044Z,101.25
2022-12-01T10:31:29.138Z,103.32
2022-12-01T10:32:29.019Z,105.42
2022-12-01T10:33:29.044Z,108.02
2022-12-01T10:34:28.993Z,112.18
2022-12-01T10:35:28.980Z,113.17
2022-12-01T10:36:28.981Z,111.50
2022-12-01T10:37:29.024Z,106.09
2022-12-01T10:38:28.979Z,102.62
2022-12-01T10:39:28.934Z,101.25
2022-12-01T10:40:28.933Z,100.21
2022-12-01T10:41:28.935Z,101.12
2022-12-01T10:42:28.906Z,101.00
2022-12-01T10:43:28.899Z,102.18
2022-12-01T10:44:28.868Z,102.37
2022-12-01T10:45:28.958Z,103.20
2022-12-01T10:46:28.884Z,107.40
2022-12-01T10:47:28.889Z,112.33
2022-12-01T10:48:28.816Z,113.17
2022-12-01T10:49:28.862Z,113.33
2022-12-01T10:50:28.807Z,113.56
2022-12-01T10:51:28.788Z,113.56
2022-12-01T10:52:28.759Z,113.79
2022-12-01T10:53:28.775Z,114.42
2022-12-01T10:54:28.765Z,114.34
2022-12-01T10:55:28.724Z,114.10
2022-12-01T10:56:28.717Z,112.18
2022-12-01T10:57:28.698Z,109.95
2022-12-01T10:58:28.692Z,108.31
2022-12-01T10:59:28.687Z,110.32
2022-12-01T11:00:58.108Z,113.56
2022-12-01T11:01:28.782Z,113.40
2022-12-01T11:02:28.820Z,111.65
2022-12-01T11:03:28.865Z,113.02
2022-12-01T11:04:28.612Z,112.86
2022-12-01T11:05:28.599Z,111.35
2022-12-01T11:06:28.592Z,109.74
2022-12-01T11:07:28.652Z,109.66
2022-12-01T11:08:28.551Z,110.17
2022-12-01T11:09:28.548Z,112.41
2022-12-01T11:10:28.532Z,112.03
2022-12-01T11:11:28.517Z,112.25
2022-12-01T11:12:28.523Z,113.25
2022-12-01T11:13:28.499Z,113.95
2022-12-01T11:14:28.491Z,114.50
2022-12-01T11:15:28.485Z,115.37
2022-12-01T11:16:28.493Z,114.34
2022-12-01T11:17:28.455Z,115.05
2022-12-01T11:18:28.426Z,116.01
2022-12-01T11:19:28.497Z,118.16
2022-12-01T11:20:28.508Z,120.38
2022-12-01T11:21:28.425Z,121.88
2022-12-01T11:22:28.388Z,125.19
2022-12-01T11:23:28.506Z,121.44
2022-12-01T11:24:28.380Z,117.66
2022-12-01T11:25:28.336Z,117.91
2022-12-01T11:26:28.328Z,121.62
2022-12-01T11:27:28.337Z,122.60
2022-12-01T11:28:28.310Z,122.96
2022-12-01T11:29:28.351Z,119.26
2022-12-01T11:30:28.318Z,119.86
2022-12-01T11:31:28.346Z,122.78
2022-12-01T11:32:28.250Z,127.39
2022-12-01T11:33:28.237Z,130.19
2022-12-01T11:34:28.223Z,131.84
2022-12-01T11:35:28.242Z,132.26
2022-12-01T11:36:28.218Z,131.53
2022-12-01T11:37:28.212Z,133.75
2022-12-01T11:38:29.656Z,135.27
2022-12-01T11:39:28.168Z,136.61
2022-12-01T11:40:28.151Z,136.94
2022-12-01T11:41:28.161Z,139.82
2022-12-01T11:42:28.139Z,140.41
2022-12-01T11:43:28.143Z,137.85
2022-12-01T11:44:50.476Z,136.05
2022-12-01T11:45:28.145Z,134.40
2022-12-01T11:46:28.078Z,131.74
2022-12-01T11:47:28.068Z,131.42
2022-12-01T11:48:28.057Z,132.36
2022-12-01T11:49:28.050Z,130.80
2022-12-01T11:50:28.036Z,131.32
2022-12-01T11:51:28.065Z,129.58
2022-12-01T11:52:28.050Z,129.18
2022-12-01T11:53:28.033Z,127.00
2022-12-01T11:54:27.991Z,129.58
2022-12-01T11:55:28.020Z,127.79
2022-12-01T11:56:27.964Z,129.28
2022-12-01T11:57:35.418Z,127.79
2022-12-01T11:58:28.083Z,124.53
2022-12-01T11:59:27.950Z,121.71
2022-12-01T12:00:27.928Z,121.62
2022-12-01T12:01:27.884Z,121.71
2022-12-01T12:02:27.927Z,120.04
2022-12-01T12:03:28.051Z,118.83
2022-12-01T12:04:27.872Z,119.52
2022-12-01T12:05:27.849Z,122.42
2022-12-01T12:06:43.206Z,121.71
2022-12-01T12:07:27.846Z,121.08
2022-12-01T12:08:27.937Z,123.79
2022-12-01T12:09:27.810Z,125.66
2022-12-01T12:10:27.834Z,125.66
2022-12-01T12:11:27.774Z,122.96
2022-12-01T12:12:27.832Z,122.51
2022-12-01T12:13:27.768Z,123.51
2022-12-01T12:14:27.773Z,123.70
2022-12-01T12:15:27.806Z,125.95
2022-12-01T12:20:00.356Z,161.56
2022-12-01T12:20:40.677Z,148.84
2022-12-01T12:23:08.451Z,163.15
2022-12-01T12:24:09.427Z,151.96
2022-12-01T12:25:10.578Z,147.25
2022-12-01T12:26:09.218Z,144.06
2022-12-01T12:27:09.112Z,145.20
2022-12-01T12:29:53.101Z,174.63
2022-12-01T12:35:34.504Z,182.89
2022-12-01T12:36:35.452Z,164.93
2022-12-01T12:37:35.363Z,159.70
2022-12-01T12:38:35.532Z,154.65
2022-12-01T12:41:14.105Z,171.39
2022-12-01T12:42:15.157Z,153.65
2022-12-01T12:43:15.109Z,146.86
2022-12-01T12:44:15.065Z,143.69
2022-12-01T12:45:15.039Z,143.57
2022-12-01T12:47:54.163Z,175.18
2022-12-01T12:49:18.771Z,165.42
2022-12-01T12:59:57.384Z,182.89
2022-12-01T13:02:13.067Z,169.12
2022-12-01T13:03:14.193Z,151.55
2022-12-01T13:06:00.271Z,167.09
2022-12-01T13:07:02.441Z,152.52
2022-12-01T13:08:01.255Z,143.69
2022-12-01T13:09:01.180Z,138.31
2022-12-01T13:10:01.232Z,140.29
2022-12-01T13:11:01.166Z,148.17
2022-12-01T13:12:01.249Z,151.55
2022-12-01T13:13:01.120Z,154.22